Terminal Aerodrome Forecast
Issued by NWS

Home | Current Version | Previous Version | Graphics & Text | Print | Product List | Glossary On
Versions: 1 2 3 4 5 6 7 8 9 10 11 12 13
000
FTUS45 KGGW 172300
TAFOLF
TAF
KOLF 172332Z 1800/1824 13015KT P6SM FEW050 OVC100
     FM180100 10015KT P6SM VCSH BKN050 OVC100
     FM180600 11014KT P6SM OVC100
     FM181900 24015KT P6SM VCSH OVC050=

USA.gov is the U.S. government's official web portal to all federal, state and local government web resources and services.